Time;durP1;ratioP1;P1;durP2;ratioP2;P2;SDS_P1;SDS_P2;PMS_P1;PMS_P2;Temp;Humidity;BMP_temperature;BMP_pressure;BME280_temperature;BME280_humidity;BME280_pressure;Samples;Min_cycle;Max_cycle;Signal;HPM_P1;HPM_P2
2022/07/14 00:00:50;;;;;;;44.67;18.53;;;;;;;17.92;63.06;95207.09;4954506;29;20225;-82
2022/07/14 00:03:17;;;;;;;40.60;19.27;;;;;;;17.81;63.63;95190.41;4954600;29;20224;-86
2022/07/14 00:05:45;;;;;;;37.43;16.80;;;;;;;17.84;64.76;95194.38;4954186;29;20194;-86
2022/07/14 00:08:12;;;;;;;39.30;17.97;;;;;;;17.85;64.78;95203.88;4954344;29;20264;-86
2022/07/14 00:10:39;;;;;;;42.40;18.37;;;;;;;17.60;64.88;95180.75;4954231;29;20231;-86
2022/07/14 00:13:06;;;;;;;42.50;18.37;;;;;;;17.58;64.79;95177.56;4954346;29;20661;-86
2022/07/14 00:16:13;;;;;;;40.63;18.13;;;;;;;17.73;65.04;95204.00;4954424;29;20209;-86
2022/07/14 00:18:56;;;;;;;38.73;17.57;;;;;;;17.70;65.30;95214.22;4882453;29;20210;-85
2022/07/14 00:21:24;;;;;;;33.73;16.93;;;;;;;17.63;65.75;95206.56;4946876;29;20280;-85
2022/07/14 00:23:51;;;;;;;41.60;16.87;;;;;;;17.70;65.82;95203.72;4954106;29;20228;-85
2022/07/14 00:26:18;;;;;;;44.80;17.60;;;;;;;17.66;65.82;95207.91;4954298;29;20213;-85
2022/07/14 00:28:45;;;;;;;34.83;16.87;;;;;;;17.58;66.01;95198.59;4954116;29;20202;-85
2022/07/14 00:31:13;;;;;;;42.83;17.90;;;;;;;17.57;66.47;95205.69;4954322;29;20204;-86
2022/07/14 00:33:40;;;;;;;41.20;17.97;;;;;;;17.53;66.43;95206.41;4954094;29;20201;-85
2022/07/14 00:36:08;;;;;;;40.00;18.20;;;;;;;17.46;66.45;95203.97;4953686;29;20665;-85
2022/07/14 00:38:37;;;;;;;50.07;19.33;;;;;;;17.47;66.60;95207.41;4953782;29;20233;-84
2022/07/14 00:41:04;;;;;;;35.60;15.70;;;;;;;17.33;66.56;95180.72;4953873;29;20265;-84
2022/07/14 00:43:31;;;;;;;32.90;12.87;;;;;;;17.41;65.51;95200.50;4953602;29;20229;-84
2022/07/14 00:45:58;;;;;;;26.27;10.83;;;;;;;17.38;63.87;95191.28;4953323;28;20197;-83
2022/07/14 00:48:26;;;;;;;15.63;7.03;;;;;;;17.34;64.06;95197.28;4953695;29;20209;-83
2022/07/14 00:50:53;;;;;;;23.47;11.37;;;;;;;17.35;64.53;95202.28;4953549;29;20264;-83
2022/07/14 00:53:20;;;;;;;26.20;11.47;;;;;;;17.34;65.65;95194.66;4953666;29;20205;-83
2022/07/14 00:55:48;;;;;;;35.47;12.17;;;;;;;17.26;66.28;95190.59;4952962;29;20214;-87
2022/07/14 00:58:15;;;;;;;23.33;11.00;;;;;;;17.31;66.00;95189.88;4953225;29;20204;-84
2022/07/14 01:00:42;;;;;;;20.63;10.47;;;;;;;17.31;66.58;95189.88;4953094;29;20194;-84
2022/07/14 01:03:09;;;;;;;23.07;9.93;;;;;;;17.35;66.80;95196.22;4952889;29;20236;-84
2022/07/14 01:05:36;;;;;;;21.43;9.60;;;;;;;17.29;66.98;95205.88;4953570;29;20205;-84
2022/07/14 01:08:03;;;;;;;26.10;10.70;;;;;;;17.23;66.88;95190.31;4953713;29;20201;-85
2022/07/14 01:10:30;;;;;;;37.07;14.50;;;;;;;17.24;65.75;95195.31;4953344;29;20202;-83
2022/07/14 01:13:01;;;;;;;35.17;14.97;;;;;;;17.11;65.06;95195.72;4953151;29;20684;-84
2022/07/14 01:15:28;;;;;;;35.43;13.10;;;;;;;17.06;65.78;95193.00;4953966;29;20190;-83
2022/07/14 01:17:55;;;;;;;24.27;10.97;;;;;;;17.08;67.89;95190.94;4953477;29;20217;-85
2022/07/14 01:20:23;;;;;;;21.63;11.30;;;;;;;16.88;68.28;95167.81;4953731;29;20206;-85
2022/07/14 01:22:52;;;;;;;25.47;11.43;;;;;;;16.90;68.96;95162.34;4953788;29;20284;-84
2022/07/14 01:25:20;;;;;;;26.17;10.83;;;;;;;16.98;68.55;95183.72;4953237;29;20597;-86
2022/07/14 01:27:47;;;;;;;25.03;10.23;;;;;;;16.92;68.95;95182.06;4953130;29;20193;-87
2022/07/14 01:30:15;;;;;;;22.47;10.10;;;;;;;16.94;69.43;95184.47;4953544;29;20280;-87
2022/07/14 01:32:42;;;;;;;25.83;9.93;;;;;;;16.85;70.07;95184.06;4953212;29;20232;-86
2022/07/14 01:35:10;;;;;;;20.57;9.60;;;;;;;16.84;70.43;95189.56;4953409;29;20205;-87
2022/07/14 01:37:37;;;;;;;24.77;10.37;;;;;;;16.81;70.64;95177.72;4953303;29;20248;-86
2022/07/14 01:40:07;;;;;;;26.20;10.23;;;;;;;16.68;70.48;95151.06;4953591;29;20229;-87
2022/07/14 01:42:35;;;;;;;24.73;8.93;;;;;;;16.80;70.99;95178.75;4953531;29;20233;-87
2022/07/14 01:45:02;;;;;;;19.70;8.53;;;;;;;16.82;70.86;95179.31;4953631;29;20208;-86
2022/07/14 01:47:29;;;;;;;16.13;7.00;;;;;;;16.76;71.31;95169.81;4953312;29;20208;-86
2022/07/14 01:49:55;;;;;;;16.53;5.37;;;;;;;16.53;71.15;95135.88;4953050;29;20592;-86
2022/07/14 01:52:22;;;;;;;13.50;4.40;;;;;;;16.71;70.85;95174.19;4953382;29;20584;-86
2022/07/14 01:54:49;;;;;;;14.93;6.77;;;;;;;16.71;70.97;95168.94;4953317;29;20201;-86
2022/07/14 01:57:17;;;;;;;18.57;8.77;;;;;;;16.56;71.65;95155.59;4953982;28;20741;-85
2022/07/14 01:59:44;;;;;;;13.53;7.10;;;;;;;16.65;71.45;95175.16;4957227;29;20204;-85
2022/07/14 02:02:13;;;;;;;13.23;5.90;;;;;;;16.59;71.82;95178.75;4956796;29;20232;-86
2022/07/14 02:04:40;;;;;;;7.90;4.10;;;;;;;16.50;72.10;95177.53;4956818;29;20186;-85
2022/07/14 02:07:07;;;;;;;7.00;3.43;;;;;;;16.54;71.23;95176.84;4956866;29;20197;-85
2022/07/14 02:12:19;;;;;;;5.50;2.80;;;;;;;16.30;71.65;95173.59;4956841;29;20188;-86
2022/07/14 02:14:46;;;;;;;4.47;2.97;;;;;;;16.38;71.83;95173.19;4955631;29;20194;-86
2022/07/14 02:17:13;;;;;;;4.20;2.97;;;;;;;16.37;71.65;95184.69;4955918;29;20680;-85
2022/07/14 02:19:40;;;;;;;3.97;2.60;;;;;;;16.28;72.14;95165.16;4937355;29;20206;-85
2022/07/14 02:22:07;;;;;;;7.67;3.20;;;;;;;16.23;72.22;95170.34;4937462;29;20666;-83
2022/07/14 02:24:34;;;;;;;4.17;2.80;;;;;;;16.25;72.90;95191.84;4937072;29;20226;-85
2022/07/14 02:27:01;;;;;;;3.70;3.00;;;;;;;16.17;72.47;95181.78;4937514;29;20219;-84
2022/07/14 02:29:30;;;;;;;3.53;2.90;;;;;;;16.23;72.29;95196.56;4937558;29;20257;-85
2022/07/14 02:31:57;;;;;;;4.27;3.00;;;;;;;16.26;72.48;95190.84;4937131;29;20591;-84
2022/07/14 02:34:24;;;;;;;4.33;3.00;;;;;;;16.11;72.81;95156.50;4937194;29;20701;-84
2022/07/14 02:36:51;;;;;;;6.50;3.00;;;;;;;16.09;73.02;95173.50;4937183;29;20209;-84
2022/07/14 02:39:18;;;;;;;3.63;2.77;;;;;;;16.19;73.59;95195.44;4937089;29;20237;-84
2022/07/14 02:41:45;;;;;;;3.97;2.70;;;;;;;16.15;74.06;95188.31;4937356;29;20213;-85
2022/07/14 02:44:12;;;;;;;3.83;2.90;;;;;;;16.12;73.95;95192.19;4936649;29;20234;-85
2022/07/14 02:46:41;;;;;;;6.27;2.93;;;;;;;16.07;73.86;95180.84;4936896;29;20202;-82
2022/07/14 02:49:08;;;;;;;7.57;3.10;;;;;;;16.07;74.39;95193.94;4951814;29;20236;-87
2022/07/14 02:51:35;;;;;;;5.53;3.17;;;;;;;16.02;74.96;95192.03;4955894;29;20200;-85
2022/07/14 02:54:03;;;;;;;5.57;3.20;;;;;;;16.02;74.95;95191.22;4956113;29;20197;-85
2022/07/14 02:56:30;;;;;;;8.13;3.00;;;;;;;15.97;75.34;95185.91;4956081;29;20232;-85
2022/07/14 02:58:57;;;;;;;9.80;3.27;;;;;;;16.00;75.31;95195.91;4955641;29;20193;-84
2022/07/14 03:01:23;;;;;;;10.13;3.27;;;;;;;15.83;75.39;95180.97;4955715;29;20228;-84
2022/07/14 03:03:52;;;;;;;7.83;3.17;;;;;;;15.95;75.38;95198.47;4955652;29;20221;-83
2022/07/14 03:06:20;;;;;;;4.33;2.90;;;;;;;15.86;75.83;95204.09;4956204;29;20205;-83
2022/07/14 03:08:47;;;;;;;4.97;3.20;;;;;;;15.82;76.02;95202.97;4955422;28;20193;-83
2022/07/14 03:11:14;;;;;;;5.13;3.07;;;;;;;15.79;75.63;95205.25;4955806;29;20720;-82
2022/07/14 03:13:41;;;;;;;4.63;2.73;;;;;;;15.78;75.51;95207.13;4956072;29;20194;-82
2022/07/14 03:16:10;;;;;;;5.40;2.90;;;;;;;15.70;75.32;95204.84;4955817;29;20198;-83
2022/07/14 03:18:37;;;;;;;4.70;3.00;;;;;;;15.68;75.75;95208.75;4956136;29;20205;-84
2022/07/14 03:21:08;;;;;;;6.93;3.53;;;;;;;15.50;76.16;95194.00;4955537;29;20641;-83
2022/07/14 03:23:35;;;;;;;7.33;3.10;;;;;;;15.63;76.41;95209.47;4954915;29;20221;-83
2022/07/14 03:26:02;;;;;;;8.50;3.50;;;;;;;15.63;76.88;95219.94;4955136;29;20201;-83
2022/07/14 03:28:29;;;;;;;7.10;2.90;;;;;;;15.43;77.88;95213.50;4955199;29;20204;-83
2022/07/14 03:30:56;;;;;;;6.00;3.57;;;;;;;15.17;79.28;95223.50;4957057;29;20201;-90
2022/07/14 03:33:23;;;;;;;6.63;3.67;;;;;;;15.29;78.37;95219.00;4958534;29;20204;-90
2022/07/14 03:35:50;;;;;;;5.93;3.20;;;;;;;15.42;78.26;95238.91;4956327;29;20194;-91
2022/07/14 03:38:19;;;;;;;7.17;3.47;;;;;;;15.45;78.01;95225.34;4964805;29;20255;-90
2022/07/14 03:40:46;;;;;;;7.20;3.10;;;;;;;15.54;77.19;95228.41;4965674;29;20276;-92
2022/07/14 03:43:13;;;;;;;9.03;3.27;;;;;;;15.55;77.77;95232.63;4959679;29;20233;-92
2022/07/14 03:45:40;;;;;;;4.60;3.30;;;;;;;15.55;77.40;95241.28;4958948;29;20213;-92
2022/07/14 03:48:08;;;;;;;5.27;3.23;;;;;;;15.58;77.29;95240.81;4958375;29;20228;-92
2022/07/14 03:50:36;;;;;;;8.43;3.70;;;;;;;15.61;77.07;95239.56;4957109;29;20197;-92
2022/07/14 03:53:04;;;;;;;5.97;3.43;;;;;;;15.63;76.81;95237.50;4957416;29;20190;-92
2022/07/14 03:55:32;;;;;;;5.03;3.27;;;;;;;15.63;77.33;95230.44;4960009;29;20205;-90
2022/07/14 03:58:00;;;;;;;5.47;3.53;;;;;;;15.67;76.93;95228.91;4964132;29;20680;-91
2022/07/14 04:00:27;;;;;;;9.10;3.50;;;;;;;15.51;77.31;95202.66;4963456;29;20233;-92
2022/07/14 04:02:54;;;;;;;3.73;3.30;;;;;;;15.58;77.30;95213.81;4965910;29;20190;-91
2022/07/14 04:05:22;;;;;;;4.87;3.83;;;;;;;15.64;77.32;95226.00;4969964;29;20190;-92
2022/07/14 04:07:49;;;;;;;5.37;3.50;;;;;;;15.70;76.93;95236.31;4958509;29;20208;-74
2022/07/14 04:10:16;;;;;;;4.07;3.30;;;;;;;15.68;76.62;95234.94;4953012;29;20205;-74
2022/07/14 04:12:44;;;;;;;9.40;3.70;;;;;;;15.75;76.78;95241.66;4952821;29;20641;-74
2022/07/14 04:15:11;;;;;;;5.90;3.40;;;;;;;15.72;76.21;95233.47;4953113;29;20189;-74
2022/07/14 04:17:38;;;;;;;8.37;3.50;;;;;;;15.78;75.36;95235.94;4952619;29;20216;-74
2022/07/14 04:20:06;;;;;;;11.27;3.90;;;;;;;15.83;75.57;95241.28;4952959;28;20265;-74
2022/07/14 04:22:33;;;;;;;5.50;3.63;;;;;;;15.79;76.39;95234.91;4952523;29;20196;-75
2022/07/14 04:25:00;;;;;;;4.83;3.77;;;;;;;15.89;76.89;95247.41;4952764;29;20229;-74
2022/07/14 04:27:27;;;;;;;7.33;3.80;;;;;;;15.92;77.13;95240.88;4952649;29;20209;-75
2022/07/14 04:29:56;;;;;;;8.63;5.57;;;;;;;15.92;77.77;95256.63;4952787;29;20197;-78
2022/07/14 04:32:26;;;;;;;8.10;4.33;;;;;;;15.97;77.65;95260.13;4943991;29;20575;-77
2022/07/14 04:34:53;;;;;;;9.00;4.77;;;;;;;15.93;78.10;95245.88;4936869;29;20320;-76
2022/07/14 04:37:20;;;;;;;13.13;4.73;;;;;;;16.00;77.98;95251.78;4951226;29;20626;-76
2022/07/14 04:39:47;;;;;;;8.23;4.47;;;;;;;16.00;77.98;95259.66;4951939;29;20214;-76
2022/07/14 04:42:14;;;;;;;11.87;4.87;;;;;;;16.03;78.48;95250.50;4951625;29;20197;-76
2022/07/14 04:44:41;;;;;;;9.00;4.60;;;;;;;15.98;78.83;95248.59;4951701;29;20315;-76
2022/07/14 04:47:09;;;;;;;9.50;4.77;;;;;;;16.08;78.48;95253.22;4951843;29;20289;-76
2022/07/14 04:52:20;;;;;;;7.73;4.87;;;;;;;16.09;78.06;95257.44;4951376;29;20180;-76
2022/07/14 04:54:47;;;;;;;10.70;5.13;;;;;;;16.13;77.89;95261.19;4951406;29;20194;-76
2022/07/14 04:57:14;;;;;;;14.40;5.07;;;;;;;16.17;77.69;95268.31;4951537;29;20197;-76
2022/07/14 04:59:41;;;;;;;14.83;5.27;;;;;;;16.30;77.04;95269.84;4951749;29;20197;-76
2022/07/14 05:02:09;;;;;;;12.67;5.43;;;;;;;16.34;77.16;95263.09;4951460;29;20202;-76
2022/07/14 05:04:36;;;;;;;10.30;5.40;;;;;;;16.33;77.29;95262.28;4951027;29;20236;-76
2022/07/14 05:07:03;;;;;;;11.97;5.67;;;;;;;16.35;76.47;95262.06;4950966;29;20208;-76
2022/07/14 05:09:33;;;;;;;9.90;5.90;;;;;;;16.33;76.48;95266.75;4950966;29;20202;-76
2022/07/14 05:12:00;;;;;;;8.73;5.57;;;;;;;16.42;77.08;95263.47;4951440;29;20567;-76
2022/07/14 05:14:27;;;;;;;11.33;5.00;;;;;;;16.46;77.08;95269.84;4951395;29;20204;-76
2022/07/14 05:16:55;;;;;;;14.30;5.67;;;;;;;16.47;77.35;95275.91;4950915;29;20201;-76
2022/07/14 05:19:23;;;;;;;10.90;5.60;;;;;;;16.52;77.34;95267.31;4950650;29;20714;-76
2022/07/14 05:21:50;;;;;;;11.47;5.43;;;;;;;16.56;76.45;95271.88;4950115;29;20243;-76
2022/07/14 05:24:17;;;;;;;9.10;5.13;;;;;;;16.56;77.07;95263.22;4950456;29;20225;-75
2022/07/14 05:26:44;;;;;;;11.60;5.30;;;;;;;16.62;76.13;95264.88;4951174;29;20201;-76
2022/07/14 05:29:11;;;;;;;10.70;5.47;;;;;;;16.65;75.67;95259.16;4951101;29;20201;-76
2022/07/14 05:31:38;;;;;;;12.77;6.00;;;;;;;16.67;74.73;95257.88;4951657;28;20194;-76
2022/07/14 05:34:06;;;;;;;11.60;6.30;;;;;;;16.76;74.34;95268.75;4955195;29;20200;-76
2022/07/14 05:36:35;;;;;;;13.70;6.13;;;;;;;16.83;74.29;95269.38;4955459;29;20193;-76
2022/07/14 05:39:10;;;;;;;11.67;5.63;;;;;;;16.89;74.70;95271.03;4954563;29;20763;-78
2022/07/14 05:41:37;;;;;;;10.37;5.93;;;;;;;16.94;75.53;95277.16;4955669;29;20201;-78
2022/07/14 05:44:04;;;;;;;19.20;5.97;;;;;;;17.03;74.39;95267.81;4955238;29;20232;-77
2022/07/14 05:46:31;;;;;;;11.77;6.57;;;;;;;17.10;74.20;95266.84;4956104;29;20220;-78
2022/07/14 05:48:58;;;;;;;13.63;6.33;;;;;;;17.12;74.04;95264.78;4955978;29;20205;-78
2022/07/14 05:51:25;;;;;;;18.53;6.50;;;;;;;17.13;74.47;95261.91;4956108;28;20201;-79
2022/07/14 05:53:53;;;;;;;15.40;6.13;;;;;;;17.16;74.50;95258.81;4956588;28;20198;-79
2022/07/14 05:56:21;;;;;;;11.37;5.43;;;;;;;17.24;73.03;95262.81;4955621;29;20584;-78
2022/07/14 05:58:48;;;;;;;19.50;6.47;;;;;;;17.28;72.76;95263.94;4955958;28;20198;-78
2022/07/14 06:01:16;;;;;;;14.00;6.53;;;;;;;17.39;71.50;95250.69;4956010;29;20197;-78
2022/07/14 06:03:43;;;;;;;16.70;6.47;;;;;;;17.40;71.68;95251.47;4955810;29;20194;-78
2022/07/14 06:06:10;;;;;;;12.93;6.27;;;;;;;17.47;71.59;95254.69;4955821;29;20208;-76
2022/07/14 06:08:37;;;;;;;10.10;6.30;;;;;;;17.53;71.82;95246.63;4954905;29;20724;-77
2022/07/14 06:11:07;;;;;;;10.03;5.83;;;;;;;17.60;70.21;95246.47;4954959;29;20201;-77
2022/07/14 06:13:33;;;;;;;9.83;5.90;;;;;;;17.65;70.00;95249.16;4955643;29;20193;-76
2022/07/14 06:16:01;;;;;;;13.50;5.95;;;;;;;17.69;69.25;95247.59;4955570;29;20578;-77
2022/07/14 06:18:28;;;;;;;15.67;6.00;;;;;;;17.79;68.68;95247.72;4954946;29;20204;-77
2022/07/14 06:20:55;;;;;;;12.63;4.97;;;;;;;17.91;65.93;95250.22;4954267;29;20349;-77
2022/07/14 06:23:22;;;;;;;13.00;4.93;;;;;;;17.96;65.19;95247.63;4954633;29;20581;-78
2022/07/14 06:25:49;;;;;;;8.60;4.50;;;;;;;18.04;65.50;95242.69;4955223;29;20225;-78
2022/07/14 06:28:17;;;;;;;9.43;4.63;;;;;;;18.14;65.47;95245.44;4955638;29;20197;-78
2022/07/14 06:30:45;;;;;;;76.13;69.20;;;;;;;18.16;65.05;95237.28;4955170;29;20197;-78
2022/07/14 06:33:12;;;;;;;12.43;10.65;;;;;;;18.25;64.61;95245.50;4954959;29;20249;-77
2022/07/14 06:35:40;;;;;;;13.40;7.03;;;;;;;18.38;64.26;95243.28;4955253;29;20206;-78
2022/07/14 06:38:07;;;;;;;7.80;4.28;;;;;;;18.46;64.44;95247.28;4955091;29;20347;-77
2022/07/14 06:40:34;;;;;;;8.77;3.83;;;;;;;18.54;64.83;95250.25;4954952;29;20193;-76
2022/07/14 06:43:01;;;;;;;5.45;3.13;;;;;;;18.60;64.26;95240.56;4955286;29;20198;-76
2022/07/14 06:45:30;;;;;;;4.90;2.90;;;;;;;18.65;63.94;95237.94;4955320;28;20232;-88
2022/07/14 06:47:56;;;;;;;10.63;3.45;;;;;;;18.76;63.38;95242.22;4956373;29;20700;-89
2022/07/14 06:50:23;;;;;;;7.18;3.15;;;;;;;18.86;63.23;95239.66;4956131;29;20668;-81
2022/07/14 06:52:50;;;;;;;4.72;2.78;;;;;;;18.94;63.21;95241.81;4958449;28;20245;-86
2022/07/14 06:55:17;;;;;;;10.55;3.10;;;;;;;19.00;62.99;95240.00;4960570;28;20206;-86
2022/07/14 06:57:44;;;;;;;8.20;3.42;;;;;;;19.11;61.75;95233.72;4955675;29;20232;-86
2022/07/14 07:00:12;;;;;;;6.13;3.30;;;;;;;19.17;61.56;95241.41;4955573;29;20198;-83
2022/07/14 07:02:41;;;;;;;10.63;3.40;;;;;;;19.20;61.64;95233.00;4955290;29;20201;-82
2022/07/14 07:07:57;;;;;;;10.18;3.20;;;;;;;19.32;61.07;95224.06;4955340;29;20203;-88
2022/07/14 07:10:24;;;;;;;11.38;3.40;;;;;;;19.37;61.03;95226.72;4955628;29;20185;-86
2022/07/14 07:12:51;;;;;;;7.07;3.53;;;;;;;19.36;60.43;95214.63;4955638;29;20185;-83
2022/07/14 07:15:18;;;;;;;7.18;3.17;;;;;;;19.57;59.96;95230.25;4957757;29;20673;-77
2022/07/14 07:17:46;;;;;;;10.35;3.30;;;;;;;19.69;60.15;95219.47;4955839;29;20213;-83
2022/07/14 07:20:14;;;;;;;5.78;3.15;;;;;;;19.72;59.37;95221.59;4955188;29;20224;-82
2022/07/14 07:22:41;;;;;;;7.22;3.15;;;;;;;19.80;58.22;95210.53;4954690;29;20204;-84
2022/07/14 07:25:09;;;;;;;6.82;3.85;;;;;;;19.93;57.06;95225.06;4955173;29;20316;-84
2022/07/14 07:27:36;;;;;;;11.13;2.92;;;;;;;20.10;56.01;95221.13;4955258;29;20201;-82
2022/07/14 07:30:04;;;;;;;6.82;3.28;;;;;;;20.20;55.26;95221.13;4955060;29;20205;-80
2022/07/14 07:32:32;;;;;;;6.90;3.00;;;;;;;20.23;55.04;95227.75;4955351;29;20204;-80
2022/07/14 07:35:00;;;;;;;9.90;2.70;;;;;;;20.18;55.06;95233.81;4954708;29;20189;-79
2022/07/14 07:37:28;;;;;;;6.57;2.80;;;;;;;20.36;53.79;95225.41;4954825;29;20256;-79
2022/07/14 07:39:57;;;;;;;4.05;2.88;;;;;;;20.44;53.15;95225.91;4954056;29;20577;-80
2022/07/14 07:42:25;;;;;;;7.75;2.50;;;;;;;20.43;53.95;95226.97;4954292;29;20221;-82
2022/07/14 07:44:52;;;;;;;9.40;4.40;;;;;;;20.55;54.23;95225.63;4954955;29;20316;-82
2022/07/14 07:47:19;;;;;;;10.25;2.70;;;;;;;20.46;54.04;95207.97;4954450;29;20660;-82
2022/07/14 07:49:45;;;;;;;6.88;3.97;;;;;;;20.59;53.19;95216.13;4954336;29;20217;-81
2022/07/14 07:52:14;;;;;;;6.78;4.40;;;;;;;20.74;53.31;95212.69;4954418;29;20212;-81
2022/07/14 07:54:44;;;;;;;7.50;2.58;;;;;;;20.80;52.82;95206.31;4954430;28;20216;-83
2022/07/14 07:57:11;;;;;;;6.85;2.40;;;;;;;20.80;53.03;95204.47;4954505;29;20205;-83
2022/07/14 07:59:38;;;;;;;5.88;2.42;;;;;;;20.84;53.21;95207.34;4954723;29;20201;-83
2022/07/14 08:02:05;;;;;;;4.57;2.35;;;;;;;20.83;50.55;95179.38;4954453;29;20193;-82
2022/07/14 08:04:34;;;;;;;6.20;1.98;;;;;;;20.70;50.48;95154.28;4950393;29;20304;-83
2022/07/14 08:07:01;;;;;;;5.38;2.40;;;;;;;21.00;50.92;95186.97;4950689;29;20244;-82
2022/07/14 08:09:29;;;;;;;5.07;2.15;;;;;;;21.19;51.08;95199.34;4953609;28;20302;-81
2022/07/14 08:11:56;;;;;;;8.43;2.20;;;;;;;21.21;51.17;95177.94;4954274;29;20233;-81
2022/07/14 08:17:07;;;;;;;10.25;2.20;;;;;;;21.38;51.21;95181.84;4954200;29;20176;-81
2022/07/14 08:19:34;;;;;;;6.38;2.22;;;;;;;21.52;50.87;95186.53;4953955;29;20209;-81
2022/07/14 08:22:01;;;;;;;11.57;2.40;;;;;;;21.56;50.40;95177.75;4953972;29;20209;-83
2022/07/14 08:24:29;;;;;;;8.77;2.30;;;;;;;21.73;49.13;95188.75;4954690;29;20202;-83
2022/07/14 08:26:56;;;;;;;7.63;2.13;;;;;;;21.79;49.33;95173.66;4954092;29;20201;-82
2022/07/14 08:29:23;;;;;;;2.08;1.70;;;;;;;22.01;48.94;95189.94;4954425;29;20193;-82
2022/07/14 08:31:50;;;;;;;9.60;2.20;;;;;;;22.14;47.79;95180.56;4954622;29;20201;-87
2022/07/14 08:34:17;;;;;;;4.57;2.30;;;;;;;22.25;47.51;95185.50;4953989;29;20535;-86
2022/07/14 08:36:44;;;;;;;6.47;2.65;;;;;;;22.36;46.51;95180.94;4954585;29;20240;-86
2022/07/14 08:39:11;;;;;;;5.03;2.20;;;;;;;22.37;46.26;95178.00;4953899;29;20237;-85
2022/07/14 08:41:41;;;;;;;5.95;2.05;;;;;;;22.42;46.21;95174.53;4954262;29;20201;-85
2022/07/14 08:44:09;;;;;;;12.82;2.33;;;;;;;22.45;45.63;95174.75;4953285;29;20202;-79
2022/07/14 08:46:38;;;;;;;8.27;2.10;;;;;;;22.54;44.80;95170.41;4953627;29;20226;-82
2022/07/14 08:49:07;;;;;;;7.10;2.20;;;;;;;22.66;44.24;95175.38;4953172;29;20240;-88
2022/07/14 08:51:38;;;;;;;5.25;1.88;;;;;;;22.76;44.61;95174.50;4953534;29;20232;-81
2022/07/14 08:54:05;;;;;;;6.63;2.20;;;;;;;22.81;47.87;95169.94;4953241;29;20328;-84
2022/07/14 08:56:32;;;;;;;7.78;2.97;;;;;;;22.90;47.56;95162.94;4952933;29;20201;-82
2022/07/14 08:59:00;;;;;;;2.47;2.10;;;;;;;23.03;47.90;95166.78;4952702;29;20474;-85
2022/07/14 09:01:27;;;;;;;8.40;2.00;;;;;;;23.16;56.99;95169.53;4952608;29;20757;-83
2022/07/14 09:03:54;;;;;;;5.35;2.20;;;;;;;23.32;49.03;95167.47;4953274;29;20204;-83
2022/07/14 09:06:46;;;;;;;5.50;1.92;;;;;;;23.46;47.12;95164.94;4953410;28;20232;-85
2022/07/14 09:09:17;;;;;;;3.55;1.83;;;;;;;23.57;47.25;95153.13;4953028;29;20206;-83
2022/07/14 09:11:56;;;;;;;4.60;2.13;;;;;;;23.67;48.14;95156.41;4953526;29;20288;-84
2022/07/14 09:14:26;;;;;;;6.05;2.03;;;;;;;23.79;49.85;95160.50;4953924;28;20602;-78
2022/07/14 09:16:53;;;;;;;5.57;1.92;;;;;;;23.87;51.03;95150.00;4952981;28;20197;-78
2022/07/14 09:19:22;;;;;;;4.40;1.80;;;;;;;24.07;49.21;95148.94;4959121;28;20208;-78
2022/07/14 09:21:55;;;;;;;6.28;2.00;;;;;;;24.16;45.77;95149.84;4952240;29;20292;-78
2022/07/14 09:24:23;;;;;;;2.28;1.60;;;;;;;24.33;44.25;95142.13;4952462;29;20190;-79
2022/07/14 09:26:51;;;;;;;5.15;1.98;;;;;;;24.44;43.91;95146.22;4952229;29;20316;-79
2022/07/14 09:29:20;;;;;;;6.93;2.20;;;;;;;24.54;44.42;95143.34;4952462;29;20205;-78
2022/07/14 09:31:48;;;;;;;5.82;2.20;;;;;;;24.65;45.95;95138.63;4952515;29;20273;-76
2022/07/14 09:34:28;;;;;;;5.20;1.90;;;;;;;24.74;44.29;95140.31;4952109;29;20204;-76
2022/07/14 09:37:11;;;;;;;3.33;1.80;;;;;;;24.75;39.92;95141.13;4952365;29;20231;-76
2022/07/14 09:39:52;;;;;;;5.55;1.70;;;;;;;24.81;41.08;95135.44;4951954;29;20676;-76
2022/07/14 09:42:19;;;;;;;7.57;1.98;;;;;;;24.86;40.93;95129.22;4952139;29;20239;-78
2022/07/14 09:44:46;;;;;;;3.97;1.63;;;;;;;24.97;43.33;95132.47;4951919;29;20201;-77
2022/07/14 09:47:14;;;;;;;4.78;1.90;;;;;;;25.15;44.15;95137.69;4952591;29;20256;-77
2022/07/14 09:49:41;;;;;;;5.38;1.95;;;;;;;25.31;43.45;95132.88;4952529;29;20205;-79
2022/07/14 09:52:08;;;;;;;2.80;2.10;;;;;;;25.31;39.21;95130.19;4952513;29;20201;-78
2022/07/14 09:54:49;;;;;;;5.50;1.98;;;;;;;25.23;38.42;95125.56;4952315;29;20197;-78
2022/07/14 09:57:22;;;;;;;4.25;1.90;;;;;;;25.21;41.61;95125.88;4952470;29;20701;-79
2022/07/14 09:59:51;;;;;;;3.60;1.90;;;;;;;25.36;42.35;95124.75;4952553;29;20229;-78
2022/07/14 10:02:21;;;;;;;3.90;1.80;;;;;;;25.57;42.71;95127.81;4952476;29;20209;-78
2022/07/14 10:04:49;;;;;;;5.78;2.15;;;;;;;25.69;39.43;95131.50;4952615;29;20189;-80
2022/07/14 10:07:17;;;;;;;2.97;1.92;;;;;;;25.73;37.85;95121.84;4952029;29;20198;-78
2022/07/14 10:09:49;;;;;;;2.60;2.05;;;;;;;25.82;38.45;95121.91;4952545;29;20209;-79
2022/07/14 10:12:16;;;;;;;2.65;1.70;;;;;;;25.94;41.95;95109.59;4952242;29;20657;-77
2022/07/14 10:14:44;;;;;;;8.45;1.75;;;;;;;26.11;39.85;95119.59;4951695;29;20661;-78
2022/07/14 10:17:11;;;;;;;3.60;1.92;;;;;;;26.24;39.49;95110.78;4951112;29;20268;-77
2022/07/14 10:19:40;;;;;;;6.28;2.40;;;;;;;26.43;38.44;95115.91;4954142;28;20205;-77
2022/07/14 10:22:09;;;;;;;7.35;1.80;;;;;;;26.56;39.24;95107.00;4954573;29;20201;-78
2022/07/14 10:24:37;;;;;;;3.85;1.95;;;;;;;26.74;39.04;95113.22;4955517;29;20216;-77
2022/07/14 10:27:06;;;;;;;5.75;2.25;;;;;;;26.87;38.70;95113.13;4954963;29;20229;-77
2022/07/14 10:29:33;;;;;;;5.40;2.15;;;;;;;26.92;37.98;95105.00;4954928;29;20660;-77
2022/07/14 10:32:19;;;;;;;2.47;1.90;;;;;;;27.09;37.99;95098.13;4955477;29;20197;-78
2022/07/14 10:34:59;;;;;;;4.03;2.00;;;;;;;27.23;36.67;95096.13;4955389;29;20201;-77
2022/07/14 10:37:35;;;;;;;2.55;1.90;;;;;;;27.42;36.46;95104.66;4955546;29;20219;-78
2022/07/14 10:40:13;;;;;;;2.53;1.90;;;;;;;27.54;36.20;95108.28;4917668;29;20689;-78
2022/07/14 10:42:53;;;;;;;3.75;1.90;;;;;;;27.70;35.53;95099.81;4917456;29;20219;-80
2022/07/14 10:45:20;;;;;;;2.92;1.77;;;;;;;27.95;35.46;95089.09;4928462;29;20236;-80
2022/07/14 10:47:49;;;;;;;2.13;1.80;;;;;;;28.00;36.68;95091.59;4935957;29;20210;-80
2022/07/14 10:50:21;;;;;;;5.63;1.92;;;;;;;28.04;36.38;95087.25;4936534;29;20198;-80
2022/07/14 10:53:02;;;;;;;7.35;2.00;;;;;;;28.18;34.29;95092.41;4935229;29;20303;-78
2022/07/14 10:55:37;;;;;;;3.10;1.65;;;;;;;28.17;35.90;95088.13;4936055;29;20202;-78
2022/07/14 10:58:27;;;;;;;5.25;1.90;;;;;;;28.42;34.90;95090.00;4935564;29;20703;-77
2022/07/14 11:01:02;;;;;;;5.93;2.03;;;;;;;28.41;35.46;95085.72;4935450;29;20205;-80
2022/07/14 11:03:47;;;;;;;6.65;1.92;;;;;;;28.55;34.39;95078.28;4936035;29;20193;-79
2022/07/14 11:06:20;;;;;;;4.78;1.70;;;;;;;28.62;34.73;95078.59;4935788;29;20221;-79
2022/07/14 11:09:30;;;;;;;5.68;1.90;;;;;;;28.86;34.20;95078.03;4935742;29;20197;-80
2022/07/14 11:12:15;;;;;;;5.88;2.03;;;;;;;29.18;33.66;95079.25;4920981;29;20198;-80
2022/07/14 11:14:43;;;;;;;4.95;2.03;;;;;;;29.35;33.16;95068.47;4935688;29;20237;-79
2022/07/14 11:17:42;;;;;;;3.83;2.00;;;;;;;29.61;32.26;95065.63;4935311;29;20194;-80
2022/07/14 11:20:11;;;;;;;2.45;1.80;;;;;;;29.68;32.94;95068.53;4916559;29;20195;-78
2022/07/14 11:22:42;;;;;;;7.18;1.90;;;;;;;29.72;31.54;95050.69;4915490;29;20214;-83
2022/07/14 11:25:25;;;;;;;2.72;1.70;;;;;;;29.82;30.69;95066.38;4916473;29;20207;-78
2022/07/14 11:27:52;;;;;;;8.27;2.28;;;;;;;29.84;33.57;95066.88;4916181;29;20650;-79
2022/07/14 11:30:30;;;;;;;5.00;2.03;;;;;;;29.91;31.81;95063.63;4915229;29;20218;-79
2022/07/14 11:32:59;;;;;;;5.85;1.75;;;;;;;29.82;30.75;95055.66;4915685;29;20206;-79
2022/07/14 11:38:27;;;;;;;3.05;1.85;;;;;;;30.24;30.96;95062.53;4921204;29;20241;-79
2022/07/14 11:40:54;;;;;;;5.80;2.10;;;;;;;30.28;31.02;95058.06;4928565;29;20206;-79
2022/07/14 11:43:39;;;;;;;3.40;1.80;;;;;;;30.33;31.81;95055.16;4915269;29;20209;-79
2022/07/14 11:46:07;;;;;;;2.72;2.00;;;;;;;30.58;31.84;95052.53;4913144;29;20210;-80
2022/07/14 11:48:37;;;;;;;3.83;1.90;;;;;;;30.58;32.17;95058.69;4914953;29;20282;-79
2022/07/14 11:51:06;;;;;;;3.40;1.67;;;;;;;30.80;32.23;95052.09;4927131;29;20209;-79